createdAt,value
2023-04-09T00:00:03.152Z,101222.88
2023-04-09T00:02:42.906Z,101201.59
2023-04-09T00:05:14.410Z,101197.44
2023-04-09T00:07:44.793Z,101207.75
2023-04-09T00:10:15.008Z,101232.56
2023-04-09T00:12:47.848Z,101233.25
2023-04-09T00:15:30.075Z,101226.53
2023-04-09T00:18:02.052Z,101232.91
2023-04-09T00:20:32.348Z,101236.66
2023-04-09T00:23:02.580Z,101234.44
2023-04-09T00:25:32.729Z,101235.38
2023-04-09T00:28:05.678Z,101244.56
2023-04-09T00:30:36.033Z,101242.22
2023-04-09T00:33:06.668Z,101240.59
2023-04-09T00:35:36.988Z,101225.97
2023-04-09T00:38:07.153Z,101212.88
2023-04-09T00:40:37.397Z,101238.50
2023-04-09T00:43:10.249Z,101247.56
2023-04-09T00:45:41.104Z,101239.22
2023-04-09T00:48:12.004Z,101247.00
2023-04-09T00:50:42.246Z,101239.47
2023-04-09T00:53:15.288Z,101248.63
2023-04-09T00:55:46.076Z,101238.31
2023-04-09T00:58:19.095Z,101251.63
2023-04-09T01:00:49.560Z,101214.38
2023-04-09T01:03:20.386Z,101248.38
2023-04-09T01:05:57.654Z,101244.53
2023-04-09T01:08:36.389Z,101243.03
2023-04-09T01:11:13.168Z,101249.88
2023-04-09T01:13:52.530Z,101240.25
2023-04-09T01:16:26.491Z,101246.06
2023-04-09T01:19:02.712Z,101249.31
2023-04-09T01:21:36.795Z,101256.63
2023-04-09T01:24:22.720Z,101249.66
2023-04-09T01:27:03.346Z,101234.34
2023-04-09T01:29:58.766Z,101246.19
2023-04-09T01:32:32.667Z,101223.06
2023-04-09T01:35:04.124Z,101224.50
2023-04-09T01:37:35.094Z,101250.59
2023-04-09T01:40:05.583Z,101254.31
2023-04-09T01:42:36.660Z,101244.53
2023-04-09T01:45:10.541Z,101261.28
2023-04-09T01:47:41.873Z,101256.97
2023-04-09T01:50:13.362Z,101254.09
2023-04-09T01:52:44.039Z,101258.69
2023-04-09T01:55:14.281Z,101262.78
2023-04-09T01:57:44.632Z,101261.97
2023-04-09T02:00:18.538Z,101260.31
2023-04-09T02:02:57.237Z,101256.50
2023-04-09T02:05:32.282Z,101251.84
2023-04-09T02:08:06.091Z,101261.16
2023-04-09T02:10:38.853Z,101224.13
2023-04-09T02:13:12.670Z,101250.34
2023-04-09T02:15:46.717Z,101254.78
2023-04-09T02:18:27.564Z,101246.66
2023-04-09T02:20:58.139Z,101264.03
2023-04-09T02:23:28.869Z,101259.41
2023-04-09T02:25:59.584Z,101263.81
2023-04-09T02:28:29.719Z,101266.50
2023-04-09T02:31:02.578Z,101263.91
2023-04-09T02:33:33.736Z,101258.22
2023-04-09T02:36:03.950Z,101248.25
2023-04-09T02:38:34.636Z,101253.72
2023-04-09T02:41:05.002Z,101253.13
2023-04-09T02:43:35.171Z,101246.75
2023-04-09T02:46:08.231Z,101251.03
2023-04-09T02:48:39.165Z,101250.56
2023-04-09T02:51:10.608Z,101229.69
2023-04-09T02:53:41.401Z,101254.88
2023-04-09T02:56:11.672Z,101247.09
2023-04-09T02:58:41.932Z,101249.63
2023-04-09T03:01:14.889Z,101243.25
2023-04-09T03:03:46.501Z,101247.44
2023-04-09T03:06:17.018Z,101251.03
2023-04-09T03:08:47.396Z,101231.09
2023-04-09T03:11:17.677Z,101242.00
2023-04-09T03:13:47.889Z,101251.03
2023-04-09T03:16:20.780Z,101244.06
2023-04-09T03:18:51.234Z,101247.00
2023-04-09T03:21:21.644Z,101224.81
2023-04-09T03:23:53.702Z,101254.53
2023-04-09T03:26:24.085Z,101254.75
2023-04-09T03:28:54.641Z,101251.94
2023-04-09T03:31:27.846Z,101254.88
2023-04-09T03:33:58.069Z,101254.53
2023-04-09T03:36:29.036Z,101226.16
2023-04-09T03:39:03.381Z,101248.47
2023-04-09T03:41:40.316Z,101242.97
2023-04-09T03:44:14.884Z,101245.63
2023-04-09T03:47:26.369Z,101262.31
2023-04-09T03:49:57.922Z,101257.06
2023-04-09T03:52:31.418Z,101262.84
2023-04-09T03:55:07.683Z,101261.66
2023-04-09T03:57:37.627Z,101264.59
2023-04-09T04:00:12.247Z,101265.22
2023-04-09T04:03:11.762Z,101269.13
2023-04-09T04:05:57.546Z,101268.91
2023-04-09T04:08:28.132Z,101260.91
2023-04-09T04:10:58.493Z,101258.69
2023-04-09T04:13:28.925Z,101263.22
2023-04-09T04:16:00.737Z,101262.72
2023-04-09T04:18:34.009Z,101268.06
2023-04-09T04:21:04.155Z,101263.84
2023-04-09T04:23:37.356Z,101274.00
2023-04-09T04:26:20.045Z,101273.25
2023-04-09T04:28:50.407Z,101260.97
2023-04-09T04:31:35.792Z,101266.75
2023-04-09T04:34:08.766Z,101263.59
2023-04-09T04:36:40.262Z,101242.69
2023-04-09T04:39:11.490Z,101273.41
2023-04-09T04:42:04.555Z,101269.28
2023-04-09T04:44:35.518Z,101279.50
2023-04-09T04:47:16.282Z,101277.72
2023-04-09T04:49:49.256Z,101280.06
2023-04-09T04:52:20.824Z,101277.09
2023-04-09T04:54:54.921Z,101264.69
2023-04-09T04:57:27.260Z,101283.91
2023-04-09T04:59:57.908Z,101292.84
2023-04-09T05:02:30.434Z,101279.13
2023-04-09T05:05:24.156Z,101292.28
2023-04-09T05:07:57.342Z,101246.31
2023-04-09T05:10:27.779Z,101301.81
2023-04-09T05:13:01.058Z,101291.91
2023-04-09T05:15:37.010Z,101284.94
2023-04-09T05:18:08.383Z,101297.47
2023-04-09T05:20:42.160Z,101303.25
2023-04-09T05:23:13.236Z,101307.59
2023-04-09T05:25:46.316Z,101311.31
2023-04-09T05:28:27.487Z,101315.47
2023-04-09T05:31:13.264Z,101317.63
2023-04-09T05:33:49.390Z,101287.34
2023-04-09T05:36:27.951Z,101317.19
2023-04-09T05:38:58.096Z,101318.09
2023-04-09T05:41:28.368Z,101292.81
2023-04-09T05:44:18.992Z,101319.56
2023-04-09T05:46:51.366Z,101325.19
2023-04-09T05:49:27.498Z,101324.44
2023-04-09T05:52:02.897Z,101330.72
2023-04-09T05:54:35.560Z,101299.75
2023-04-09T05:57:07.518Z,101335.09
2023-04-09T05:59:40.763Z,101334.63
2023-04-09T06:02:11.278Z,101345.44
2023-04-09T06:04:41.768Z,101337.94
2023-04-09T06:07:15.660Z,101333.31
2023-04-09T06:09:47.208Z,101342.13
2023-04-09T06:12:17.678Z,101334.72
2023-04-09T06:14:47.974Z,101342.16
2023-04-09T06:17:18.323Z,101340.91
2023-04-09T06:19:48.948Z,101340.78
2023-04-09T06:22:21.770Z,101334.78
2023-04-09T06:24:52.073Z,101329.09
2023-04-09T06:27:23.158Z,101336.91
2023-04-09T06:29:53.038Z,101348.28
2023-04-09T06:32:23.520Z,101352.72
2023-04-09T06:34:53.772Z,101343.66
2023-04-09T06:37:26.921Z,101351.09
2023-04-09T06:40:00.855Z,101276.44
2023-04-09T06:42:31.967Z,101352.16
2023-04-09T06:45:13.686Z,101352.63
2023-04-09T06:47:44.129Z,101318.69
2023-04-09T06:50:14.595Z,101339.25
2023-04-09T06:52:47.591Z,101336.34
2023-04-09T06:55:17.850Z,101337.69
2023-04-09T06:57:48.063Z,101337.09
2023-04-09T07:00:18.751Z,101351.25
2023-04-09T07:02:49.745Z,101362.00
2023-04-09T07:05:20.405Z,101354.78
2023-04-09T07:07:53.424Z,101362.25
2023-04-09T07:10:23.685Z,101360.44
2023-04-09T07:12:53.979Z,101360.13
2023-04-09T07:15:24.247Z,101369.41
2023-04-09T07:17:55.046Z,101366.84
2023-04-09T07:20:25.350Z,101366.72
2023-04-09T07:22:59.331Z,101376.13
2023-04-09T07:25:32.771Z,101367.38
2023-04-09T07:28:03.273Z,101364.38
2023-04-09T07:30:33.698Z,101374.50
2023-04-09T07:33:04.389Z,101373.84
2023-04-09T07:35:35.671Z,101367.28
2023-04-09T07:38:08.667Z,101378.41
2023-04-09T07:40:39.711Z,101371.59
2023-04-09T07:43:09.615Z,101389.09
2023-04-09T07:45:39.869Z,101377.88
2023-04-09T07:48:10.959Z,101378.53
2023-04-09T07:50:41.092Z,101399.66
2023-04-09T07:53:14.556Z,101385.69
2023-04-09T07:55:44.786Z,101401.25
2023-04-09T07:58:15.063Z,101368.88
2023-04-09T08:00:45.292Z,101397.03
2023-04-09T08:03:16.073Z,101398.44
2023-04-09T08:05:46.799Z,101395.75
2023-04-09T08:08:20.172Z,101405.72
2023-04-09T08:10:50.451Z,101405.22
2023-04-09T08:13:20.793Z,101402.31
2023-04-09T08:15:51.092Z,101406.59
2023-04-09T08:18:21.342Z,101389.69
2023-04-09T08:20:51.575Z,101392.16
2023-04-09T08:23:24.392Z,101402.50
2023-04-09T08:25:54.582Z,101401.03
2023-04-09T08:28:24.813Z,101401.16
2023-04-09T08:30:54.992Z,101402.38
2023-04-09T08:33:25.225Z,101406.38
2023-04-09T08:35:55.574Z,101408.44
2023-04-09T08:38:28.412Z,101404.13
2023-04-09T08:40:58.627Z,101383.34
2023-04-09T08:43:47.212Z,101406.78
2023-04-09T08:46:22.300Z,101411.41
2023-04-09T08:48:54.663Z,101386.38
2023-04-09T08:51:28.985Z,101406.41
2023-04-09T08:54:04.720Z,101411.25
2023-04-09T08:56:36.115Z,101420.63
2023-04-09T08:59:06.545Z,101411.53
2023-04-09T09:01:37.035Z,101412.47
2023-04-09T09:04:08.741Z,101423.84
2023-04-09T09:06:41.283Z,101422.31
2023-04-09T09:09:16.029Z,101415.28
2023-04-09T09:11:48.733Z,101416.31
2023-04-09T09:14:20.477Z,101417.38
2023-04-09T09:17:08.901Z,101416.28
2023-04-09T09:19:39.189Z,101416.94
2023-04-09T09:22:12.878Z,101422.41
2023-04-09T09:24:52.968Z,101393.59
2023-04-09T09:27:37.268Z,101390.84
2023-04-09T09:30:09.057Z,101412.00
2023-04-09T09:32:40.088Z,101399.69
2023-04-09T09:35:10.915Z,101404.88
2023-04-09T09:37:41.619Z,101381.72
2023-04-09T09:40:30.222Z,101393.94
2023-04-09T09:43:00.999Z,101396.69
2023-04-09T09:45:32.646Z,101381.88
2023-04-09T09:48:04.386Z,101387.00
2023-04-09T09:50:36.582Z,101388.13
2023-04-09T09:53:09.087Z,101385.16
2023-04-09T09:55:44.508Z,101383.78
2023-04-09T09:58:20.567Z,101377.59
2023-04-09T10:00:51.991Z,101386.50
2023-04-09T10:03:26.452Z,101386.75
2023-04-09T10:06:00.641Z,101373.81
2023-04-09T10:08:34.373Z,101380.56
2023-04-09T10:11:09.303Z,101375.16
2023-04-09T10:13:43.339Z,101374.09
2023-04-09T10:16:14.588Z,101365.47
2023-04-09T10:18:45.801Z,101325.56
2023-04-09T10:21:29.119Z,101365.47
2023-04-09T10:24:00.371Z,101364.91
2023-04-09T10:26:36.657Z,101367.38
2023-04-09T10:29:09.915Z,101367.09
2023-04-09T10:31:51.797Z,101361.72
2023-04-09T10:34:24.859Z,101365.47
2023-04-09T10:36:58.734Z,101358.97
2023-04-09T10:39:30.949Z,101365.13
2023-04-09T10:42:05.391Z,101371.09
2023-04-09T10:44:38.321Z,101341.41
2023-04-09T10:47:08.901Z,101357.06
2023-04-09T10:49:41.142Z,101356.84
2023-04-09T10:52:14.167Z,101358.47
2023-04-09T10:54:47.334Z,101353.06
2023-04-09T10:57:26.633Z,101354.13
2023-04-09T10:59:58.285Z,101352.25
2023-04-09T11:03:04.827Z,101355.78
2023-04-09T11:05:43.548Z,101354.97
2023-04-09T11:08:15.993Z,101352.81
2023-04-09T11:10:49.772Z,101355.47
2023-04-09T11:13:24.217Z,101348.44
2023-04-09T11:15:54.649Z,101335.19
2023-04-09T11:18:26.147Z,101354.63
2023-04-09T11:20:58.569Z,101322.56
2023-04-09T11:23:32.531Z,101343.88
2023-04-09T11:26:03.075Z,101343.88
2023-04-09T11:28:38.517Z,101344.97
2023-04-09T11:31:09.319Z,101340.91
2023-04-09T11:33:42.380Z,101316.06
2023-04-09T11:36:12.865Z,101338.97
2023-04-09T11:38:43.129Z,101341.34
2023-04-09T11:41:14.388Z,101324.97
2023-04-09T11:43:47.465Z,101342.16
2023-04-09T11:46:20.393Z,101344.00
2023-04-09T11:48:52.033Z,101335.09
2023-04-09T11:51:22.917Z,101341.97
2023-04-09T11:53:53.429Z,101345.72
2023-04-09T11:56:23.841Z,101318.69
2023-04-09T11:58:58.144Z,101316.94
2023-04-09T12:01:33.584Z,101334.00
2023-04-09T12:04:05.875Z,101341.59
2023-04-09T12:06:37.026Z,101323.13
2023-04-09T12:09:07.384Z,101323.16
2023-04-09T12:11:42.324Z,101324.56
2023-04-09T12:14:19.776Z,101320.38
2023-04-09T12:16:54.796Z,101331.81
2023-04-09T12:19:28.671Z,101325.28
2023-04-09T12:21:59.797Z,101316.31
2023-04-09T12:24:29.659Z,101325.63
2023-04-09T12:27:00.296Z,101326.88
2023-04-09T12:29:33.853Z,101322.53
2023-04-09T12:32:04.254Z,101331.59
2023-04-09T12:34:34.612Z,101315.72
2023-04-09T12:37:05.238Z,101319.25
2023-04-09T12:39:35.686Z,101308.81
2023-04-09T12:42:05.936Z,101311.81
2023-04-09T12:44:39.439Z,101311.75
2023-04-09T12:47:09.685Z,101309.22
2023-04-09T12:49:42.190Z,101298.16
2023-04-09T12:52:12.784Z,101311.53
2023-04-09T12:54:43.119Z,101312.59
2023-04-09T12:57:13.289Z,101315.06
2023-04-09T12:59:46.112Z,101305.97
2023-04-09T13:02:16.688Z,101310.38
2023-04-09T13:04:47.424Z,101304.47
2023-04-09T13:07:19.433Z,101305.03
2023-04-09T13:09:50.724Z,101299.91
2023-04-09T13:12:21.792Z,101295.91
2023-04-09T13:14:57.165Z,101302.94
2023-04-09T13:17:27.518Z,101293.69
2023-04-09T13:19:57.784Z,101291.56
2023-04-09T13:22:27.958Z,101292.22
2023-04-09T13:24:58.065Z,101286.53
2023-04-09T13:27:28.290Z,101286.31
2023-04-09T13:30:01.307Z,101293.19
2023-04-09T13:32:31.489Z,101287.56
2023-04-09T13:35:01.664Z,101283.44
2023-04-09T13:37:32.079Z,101291.13
2023-04-09T13:40:02.221Z,101253.03
2023-04-09T13:42:32.801Z,101276.66
2023-04-09T13:45:05.691Z,101253.03
2023-04-09T13:47:36.073Z,101275.38
2023-04-09T13:50:06.671Z,101276.66
2023-04-09T13:52:36.849Z,101271.38
2023-04-09T13:55:07.904Z,101267.78
2023-04-09T13:57:39.812Z,101267.03
2023-04-09T14:00:14.157Z,101267.19
2023-04-09T14:02:44.918Z,101261.31
2023-04-09T14:05:15.229Z,101256.66
2023-04-09T14:07:45.450Z,101250.75
2023-04-09T14:10:16.232Z,101247.25
2023-04-09T14:12:46.485Z,101249.34
2023-04-09T14:15:19.345Z,101243.03
2023-04-09T14:17:49.527Z,101243.59
2023-04-09T14:20:21.409Z,101240.22
2023-04-09T14:22:51.948Z,101246.44
2023-04-09T14:25:22.109Z,101243.09
2023-04-09T14:27:52.398Z,101234.13
2023-04-09T14:30:26.050Z,101239.81
2023-04-09T14:32:56.405Z,101243.72
2023-04-09T14:35:27.050Z,101245.66
2023-04-09T14:37:57.513Z,101225.00
2023-04-09T14:40:27.796Z,101241.66
2023-04-09T14:42:57.980Z,101234.75
2023-04-09T14:45:31.094Z,101222.47
2023-04-09T14:48:01.392Z,101233.78
2023-04-09T14:50:34.214Z,101232.47
2023-04-09T14:53:04.405Z,101233.28
2023-04-09T14:55:34.672Z,101226.81
2023-04-09T14:58:07.775Z,101223.06
2023-04-09T15:00:41.553Z,101221.41
2023-04-09T15:03:12.363Z,101225.44
2023-04-09T15:05:42.471Z,101225.72
2023-04-09T15:08:12.796Z,101230.84
2023-04-09T15:10:43.246Z,101226.84
2023-04-09T15:13:13.611Z,101230.72
2023-04-09T15:15:46.845Z,101187.72
2023-04-09T15:18:17.041Z,101221.38
2023-04-09T15:20:47.576Z,101213.56
2023-04-09T15:23:17.793Z,101224.94
2023-04-09T15:25:48.009Z,101220.09
2023-04-09T15:28:18.203Z,101219.28
2023-04-09T15:30:50.986Z,101224.94
2023-04-09T15:33:21.376Z,101229.28
2023-04-09T15:35:51.640Z,101218.53
2023-04-09T15:38:22.346Z,101229.06
2023-04-09T15:40:52.517Z,101225.03
2023-04-09T15:43:23.546Z,101217.50
2023-04-09T15:45:56.405Z,101225.88
2023-04-09T15:48:26.758Z,101226.47
2023-04-09T15:50:57.042Z,101216.25
2023-04-09T15:53:29.573Z,101221.41
2023-04-09T15:56:00.082Z,101223.50
2023-04-09T15:58:30.324Z,101225.91
2023-04-09T16:01:03.167Z,101229.16
2023-04-09T16:03:37.342Z,101225.41
2023-04-09T16:06:08.915Z,101229.44
2023-04-09T16:08:42.973Z,101224.03
2023-04-09T16:11:13.724Z,101218.16
2023-04-09T16:13:43.961Z,101226.88
2023-04-09T16:16:16.728Z,101230.13
2023-04-09T16:18:47.301Z,101219.38
2023-04-09T16:21:17.765Z,101233.16
2023-04-09T16:23:48.016Z,101236.13
2023-04-09T16:26:18.456Z,101210.28
2023-04-09T16:28:48.698Z,101208.69
2023-04-09T16:31:21.549Z,101228.59
2023-04-09T16:33:51.921Z,101238.84
2023-04-09T16:36:22.322Z,101230.75
2023-04-09T16:38:52.910Z,101237.50
2023-04-09T16:41:23.236Z,101232.41
2023-04-09T16:43:53.687Z,101237.22
2023-04-09T16:46:26.619Z,101237.72
2023-04-09T16:48:56.885Z,101240.91
2023-04-09T16:51:27.362Z,101234.34
2023-04-09T16:53:57.678Z,101246.97
2023-04-09T16:56:28.250Z,101240.94
2023-04-09T16:58:58.540Z,101237.69
2023-04-09T17:01:31.750Z,101245.69
2023-04-09T17:04:03.364Z,101242.59
2023-04-09T17:06:33.709Z,101251.19
2023-04-09T17:09:05.589Z,101244.50
2023-04-09T17:11:35.826Z,101250.69
2023-04-09T17:14:06.210Z,101253.31
2023-04-09T17:16:39.441Z,101251.13
2023-04-09T17:19:09.723Z,101255.41
2023-04-09T17:21:39.961Z,101245.91
2023-04-09T17:24:10.633Z,101258.47
2023-04-09T17:26:40.933Z,101252.53
2023-04-09T17:29:11.227Z,101245.00
2023-04-09T17:31:44.224Z,101253.63
2023-04-09T17:34:16.557Z,101240.91
2023-04-09T17:36:49.785Z,101247.34
2023-04-09T17:39:20.016Z,101251.38
2023-04-09T17:41:50.237Z,101246.88
2023-04-09T17:44:21.013Z,101261.22
2023-04-09T17:46:54.275Z,101265.06
2023-04-09T17:49:24.777Z,101266.97
2023-04-09T17:51:55.130Z,101270.75
2023-04-09T17:54:25.408Z,101274.28
2023-04-09T17:56:57.225Z,101242.03
2023-04-09T17:59:27.568Z,101270.59
2023-04-09T18:02:00.686Z,101286.53
2023-04-09T18:04:34.364Z,101284.84
2023-04-09T18:07:04.996Z,101257.09
2023-04-09T18:09:35.312Z,101285.94
2023-04-09T18:12:05.636Z,101292.13
2023-04-09T18:14:35.823Z,101286.22
2023-04-09T18:17:08.611Z,101282.28
2023-04-09T18:19:41.555Z,101283.25
2023-04-09T18:22:11.901Z,101302.88
2023-04-09T18:24:42.324Z,101296.13
2023-04-09T18:27:12.578Z,101299.16
2023-04-09T18:29:42.780Z,101290.50
2023-04-09T18:32:15.693Z,101295.19
2023-04-09T18:34:47.302Z,101298.09
2023-04-09T18:37:17.640Z,101303.75
2023-04-09T18:39:48.189Z,101306.16
2023-04-09T18:42:18.366Z,101305.09
2023-04-09T18:44:49.084Z,101306.91
2023-04-09T18:47:21.944Z,101303.91
2023-04-09T18:49:52.242Z,101314.41
2023-04-09T18:52:22.602Z,101311.09
2023-04-09T18:54:53.035Z,101303.56
2023-04-09T18:57:23.395Z,101309.41
2023-04-09T18:59:54.098Z,101299.19
2023-04-09T19:02:28.385Z,101302.69
2023-04-09T19:05:02.281Z,101307.59
2023-04-09T19:07:33.980Z,101301.63
2023-04-09T19:10:04.282Z,101308.94
2023-04-09T19:12:34.611Z,101312.72
2023-04-09T19:15:06.479Z,101316.53
2023-04-09T19:17:39.447Z,101306.56
2023-04-09T19:20:11.178Z,101308.44
2023-04-09T19:22:41.635Z,101312.53
2023-04-09T19:25:12.880Z,101309.81
2023-04-09T19:27:43.418Z,101309.28
2023-04-09T19:30:14.277Z,101302.22
2023-04-09T19:32:48.954Z,101312.97
2023-04-09T19:35:21.507Z,101312.97
2023-04-09T19:37:54.300Z,101307.59
2023-04-09T19:40:24.641Z,101290.28
2023-04-09T19:42:56.300Z,101301.53
2023-04-09T19:45:26.538Z,101307.09
2023-04-09T19:47:59.685Z,101303.06
2023-04-09T19:50:30.042Z,101303.59
2023-04-09T19:53:00.173Z,101295.09
2023-04-09T19:55:30.527Z,101313.13
2023-04-09T19:58:00.922Z,101307.81
2023-04-09T20:00:31.618Z,101302.13
2023-04-09T20:03:06.124Z,101300.63
2023-04-09T20:05:36.648Z,101308.44
2023-04-09T20:08:12.255Z,101297.88
2023-04-09T20:10:46.632Z,101302.91
2023-04-09T20:13:16.964Z,101306.34
2023-04-09T20:15:47.132Z,101281.56
2023-04-09T20:18:20.000Z,101297.75
2023-04-09T20:20:51.052Z,101300.66
2023-04-09T20:23:20.982Z,101305.59
2023-04-09T20:26:01.352Z,101305.34
2023-04-09T20:28:31.612Z,101284.91
2023-04-09T20:31:02.495Z,101288.47
2023-04-09T20:33:35.886Z,101300.69
2023-04-09T20:36:06.192Z,101290.50
2023-04-09T20:38:36.584Z,101301.78
2023-04-09T20:41:07.377Z,101291.81
2023-04-09T20:43:38.791Z,101298.25
2023-04-09T20:46:09.085Z,101295.53
2023-04-09T20:48:42.005Z,101289.06
2023-04-09T20:51:13.335Z,101300.69
2023-04-09T20:53:44.053Z,101294.19
2023-04-09T20:56:14.879Z,101299.81
2023-04-09T20:58:45.646Z,101307.06
2023-04-09T21:01:18.533Z,101302.19
2023-04-09T21:03:52.973Z,101297.94
2023-04-09T21:06:23.365Z,101296.00
2023-04-09T21:08:56.931Z,101289.06
2023-04-09T21:11:28.147Z,101295.53
2023-04-09T21:13:58.483Z,101302.25
2023-04-09T21:16:30.172Z,101297.47
2023-04-09T21:19:07.394Z,101289.84
2023-04-09T21:21:38.160Z,101299.50
2023-04-09T21:24:08.597Z,101290.34
2023-04-09T21:29:15.989Z,101293.78
2023-04-09T21:31:46.222Z,101283.50
2023-04-09T21:34:19.220Z,101294.31
2023-04-09T21:36:49.491Z,101295.63
2023-04-09T21:39:19.824Z,101297.13
2023-04-09T21:41:50.151Z,101288.72
2023-04-09T21:44:21.590Z,101294.19
2023-04-09T21:46:52.570Z,101283.53
2023-04-09T21:49:25.337Z,101291.47
2023-04-09T21:51:57.011Z,101298.72
2023-04-09T21:54:27.195Z,101297.91
2023-04-09T21:56:57.393Z,101292.03
2023-04-09T21:59:27.732Z,101292.84
2023-04-09T22:01:58.114Z,101295.78
2023-04-09T22:04:31.018Z,101294.97
2023-04-09T22:07:01.496Z,101295.16
2023-04-09T22:09:31.945Z,101286.25
2023-04-09T22:12:03.018Z,101296.09
2023-04-09T22:14:33.861Z,101302.56
2023-04-09T22:17:04.918Z,101295.84
2023-04-09T22:19:37.448Z,101294.22
2023-04-09T22:22:09.350Z,101301.34
2023-04-09T22:24:39.644Z,101302.72
2023-04-09T22:27:10.284Z,101291.56
2023-04-09T22:29:40.746Z,101305.94
2023-04-09T22:32:12.366Z,101295.09
2023-04-09T22:34:45.176Z,101273.31
2023-04-09T22:37:17.364Z,101291.63
2023-04-09T22:39:47.613Z,101304.13
2023-04-09T22:42:17.863Z,101301.44
2023-04-09T22:44:48.116Z,101304.50
2023-04-09T22:47:18.394Z,101304.75
2023-04-09T22:49:55.097Z,101300.50
2023-04-09T22:52:25.547Z,101300.19
2023-04-09T22:54:55.861Z,101297.97
2023-04-09T22:57:26.031Z,101302.09
2023-04-09T22:59:56.711Z,101287.69
2023-04-09T23:02:27.536Z,101285.59
2023-04-09T23:05:02.333Z,101291.41
2023-04-09T23:07:32.616Z,101288.19
2023-04-09T23:10:03.191Z,101288.81
2023-04-09T23:12:33.418Z,101290.03
2023-04-09T23:15:07.362Z,101292.22
2023-04-09T23:17:37.943Z,101296.50
2023-04-09T23:20:13.961Z,101284.38
2023-04-09T23:22:44.226Z,101292.38
2023-04-09T23:25:14.991Z,101290.13
2023-04-09T23:27:46.843Z,101281.91
2023-04-09T23:30:20.619Z,101289.69
2023-04-09T23:32:53.273Z,101284.91
2023-04-09T23:35:27.063Z,101287.75
2023-04-09T23:37:57.373Z,101283.41
2023-04-09T23:40:27.729Z,101277.06
2023-04-09T23:42:58.177Z,101290.06
2023-04-09T23:45:28.426Z,101279.84
2023-04-09T23:47:58.706Z,101286.75
2023-04-09T23:50:31.773Z,101283.75
2023-04-09T23:53:04.045Z,101287.81
2023-04-09T23:55:38.358Z,101280.03
2023-04-09T23:58:08.689Z,101263.88
